Time;durP1;ratioP1;P1;durP2;ratioP2;P2;SDS_P1;SDS_P2;PMS_P1;PMS_P2;Temp;Humidity;BMP_temperature;BMP_pressure;BME280_temperature;BME280_humidity;BME280_pressure;Samples;Min_cycle;Max_cycle;Signal;HPM_P1;HPM_P2
2022/08/30 00:06:56;;;;;;;8.30;7.43;;;18.00;99.90;;;;;;2616136;54;20465;-76
2022/08/30 00:12:45;;;;;;;8.63;7.10;;;17.90;99.90;;;;;;2616266;54;20133;-77
2022/08/30 00:15:57;;;;;;;8.60;7.53;;;17.80;99.90;;;;;;2615911;46;20422;-77
2022/08/30 00:18:23;;;;;;;11.20;7.07;;;17.80;99.90;;;;;;2616043;54;20439;-77
2022/08/30 00:24:11;;;;;;;7.43;6.73;;;17.70;99.90;;;;;;2616415;54;20404;-76
2022/08/30 00:29:59;;;;;;;8.20;7.47;;;17.70;99.90;;;;;;2616708;39;20611;-77
2022/08/30 00:35:48;;;;;;;11.00;7.83;;;17.80;99.90;;;;;;2616480;54;20426;-76
2022/08/30 00:41:36;;;;;;;7.97;7.20;;;17.90;99.90;;;;;;2616664;54;20391;-76
2022/08/30 00:47:23;;;;;;;7.80;7.20;;;18.00;99.90;;;;;;2616435;54;20475;-77
2022/08/30 00:53:16;;;;;;;8.40;7.47;;;17.90;99.90;;;;;;2616069;54;20149;-78
2022/08/30 00:59:05;;;;;;;10.07;8.13;;;17.90;99.90;;;;;;2615472;54;20389;-78
2022/08/30 01:04:54;;;;;;;9.00;8.10;;;17.80;99.90;;;;;;2616517;54;20433;-77
2022/08/30 01:10:42;;;;;;;8.23;7.53;;;17.80;99.90;;;;;;2616199;54;20353;-78
2022/08/30 01:20:32;;;;;;;8.70;7.90;;;17.80;99.90;;;;;;2615473;46;20421;-77
2022/08/30 01:26:21;;;;;;;8.10;7.20;;;17.70;99.90;;;;;;2616065;54;20407;-77
2022/08/30 01:38:46;;;;;;;8.63;7.83;;;17.80;99.90;;;;;;2616530;54;20432;-81
2022/08/30 01:44:33;;;;;;;8.40;7.70;;;17.60;99.90;;;;;;2616855;54;20430;-81
2022/08/30 01:50:21;;;;;;;8.63;7.90;;;17.60;99.90;;;;;;2614996;54;20171;-82
2022/08/30 01:56:10;;;;;;;8.33;6.90;;;17.60;99.90;;;;;;2615065;54;20254;-77
2022/08/30 02:01:57;;;;;;;7.30;6.80;;;17.50;99.90;;;;;;2614622;54;20447;-79
2022/08/30 02:07:45;;;;;;;7.50;6.37;;;17.50;99.90;;;;;;2614898;54;20137;-76
2022/08/30 02:13:34;;;;;;;11.47;7.50;;;17.50;99.90;;;;;;2616230;54;20125;-76
2022/08/30 02:22:44;;;;;;;7.83;7.13;;;17.40;99.90;;;;;;2616204;54;20621;-77
2022/08/30 02:28:32;;;;;;;8.40;7.63;;;17.30;99.90;;;;;;2616615;54;20157;-77
2022/08/30 02:34:20;;;;;;;7.53;6.73;;;17.30;99.90;;;;;;2617327;54;20410;-82
2022/08/30 02:40:08;;;;;;;9.40;7.20;;;17.20;99.90;;;;;;2617924;54;20382;-80
2022/08/30 02:45:57;;;;;;;7.60;6.97;;;17.20;99.90;;;;;;2619187;54;20370;-81
2022/08/30 02:51:45;;;;;;;9.20;7.13;;;17.20;99.90;;;;;;2617110;54;20153;-81
2022/08/30 02:57:33;;;;;;;8.30;7.50;;;17.10;99.90;;;;;;2617777;54;20146;-81
2022/08/30 03:03:21;;;;;;;8.23;7.47;;;17.10;99.90;;;;;;2618793;54;20363;-81
2022/08/30 03:09:09;;;;;;;10.10;8.50;;;17.10;99.90;;;;;;2619068;54;20927;-81
2022/08/30 03:14:57;;;;;;;9.30;7.20;;;17.00;99.90;;;;;;2618867;46;20173;-81
2022/08/30 03:25:16;;;;;;;9.00;7.50;;;16.70;99.90;;;;;;2617133;54;20397;-77
2022/08/30 03:31:05;;;;;;;8.20;7.50;;;16.40;99.90;;;;;;2617002;54;20366;-77
2022/08/30 03:36:55;;;;;;;8.80;7.50;;;16.30;99.90;;;;;;2616409;54;20473;-77
2022/08/30 03:42:44;;;;;;;9.20;8.30;;;16.30;99.90;;;;;;2616632;54;20409;-76
2022/08/30 03:48:31;;;;;;;9.27;8.37;;;16.30;99.90;;;;;;2615480;54;20436;-77
2022/08/30 03:54:19;;;;;;;7.43;6.90;;;16.20;99.90;;;;;;2617053;54;20189;-78
2022/08/30 04:00:07;;;;;;;8.63;7.67;;;16.10;99.90;;;;;;2616186;54;20125;-77
2022/08/30 04:05:55;;;;;;;9.73;7.67;;;16.00;99.90;;;;;;2616699;39;20488;-77
2022/08/30 04:11:44;;;;;;;8.63;7.93;;;16.00;99.90;;;;;;2617149;54;20153;-78
2022/08/30 04:17:32;;;;;;;9.03;8.23;;;15.90;99.90;;;;;;2617304;39;20751;-77
2022/08/30 04:23:20;;;;;;;9.77;9.07;;;15.80;99.90;;;;;;2617373;54;20123;-76
2022/08/30 04:29:10;;;;;;;14.57;8.37;;;15.80;99.90;;;;;;2617763;54;20378;-81
2022/08/30 04:34:58;;;;;;;10.57;8.73;;;15.70;99.90;;;;;;2617944;54;20425;-81
2022/08/30 04:40:49;;;;;;;12.00;9.20;;;15.60;99.90;;;;;;2618744;54;20422;-82
2022/08/30 04:46:37;;;;;;;10.03;9.03;;;15.50;99.90;;;;;;2619009;54;20372;-80
2022/08/30 04:52:27;;;;;;;10.53;9.53;;;15.50;99.90;;;;;;2618057;54;20164;-83
2022/08/30 04:58:15;;;;;;;11.30;9.30;;;15.60;99.90;;;;;;2617361;54;20527;-81
2022/08/30 05:04:03;;;;;;;10.60;9.57;;;15.60;99.90;;;;;;2616789;54;20640;-80
2022/08/30 05:09:51;;;;;;;10.40;9.60;;;15.60;99.90;;;;;;2618480;54;20373;-77
2022/08/30 05:15:39;;;;;;;9.63;8.83;;;15.80;99.90;;;;;;2618066;54;20930;-77
2022/08/30 05:18:16;;;;;;;11.10;10.30;;;15.80;99.90;;;;;;2617083;47;20382;-78
2022/08/30 05:20:43;;;;;;;11.27;10.03;;;15.90;99.90;;;;;;2617678;54;20385;-77
2022/08/30 05:26:33;;;;;;;11.50;10.33;;;16.00;99.90;;;;;;2616035;54;20404;-77
2022/08/30 05:32:20;;;;;;;10.83;9.97;;;16.10;99.90;;;;;;2617726;54;20950;-77
2022/08/30 05:38:08;;;;;;;14.00;10.00;;;16.90;99.90;;;;;;2618877;54;20173;-77
2022/08/30 05:43:59;;;;;;;12.73;10.87;;;17.10;99.90;;;;;;2617074;54;20121;-77
2022/08/30 05:49:47;;;;;;;13.40;11.13;;;17.80;99.90;;;;;;2617645;54;20362;-76
2022/08/30 05:52:50;;;;;;;10.03;8.70;;;17.90;99.90;;;;;;2617044;54;20410;-77
2022/08/30 05:55:17;;;;;;;11.10;10.00;;;17.90;99.90;;;;;;2617476;54;20896;-77
2022/08/30 06:01:06;;;;;;;11.17;10.07;;;18.00;99.90;;;;;;2618281;54;20370;-77
2022/08/30 06:06:54;;;;;;;11.17;10.20;;;17.40;99.90;;;;;;2617464;54;20398;-77
2022/08/30 06:12:42;;;;;;;10.20;9.30;;;17.10;99.90;;;;;;2618990;54;20137;-75
2022/08/30 06:22:48;;;;;;;12.10;11.07;;;17.30;99.90;;;;;;2618030;54;20368;-74
2022/08/30 06:28:36;;;;;;;12.27;10.87;;;16.90;99.90;;;;;;2617382;54;20416;-74
2022/08/30 06:34:23;;;;;;;11.63;10.43;;;17.70;99.90;;;;;;2614986;39;20569;-75
2022/08/30 06:40:12;;;;;;;11.90;10.80;;;17.60;99.90;;;;;;2615709;54;20141;-74
2022/08/30 06:46:05;;;;;;;10.40;9.50;;;19.10;99.90;;;;;;2615908;54;20496;-74
2022/08/30 06:51:53;;;;;;;10.47;9.67;;;19.60;99.90;;;;;;2615640;54;20411;-74
2022/08/30 06:57:45;;;;;;;13.03;10.07;;;19.60;99.90;;;;;;2618267;54;20648;-74
2022/08/30 07:03:36;;;;;;;9.90;9.20;;;20.50;99.90;;;;;;2618142;54;20408;-74
2022/08/30 07:09:24;;;;;;;10.50;9.57;;;20.70;99.90;;;;;;2618864;39;20722;-75
2022/08/30 07:15:12;;;;;;;10.37;8.97;;;20.30;99.90;;;;;;2615811;54;20399;-74
2022/08/30 07:21:14;;;;;;;10.43;9.43;;;21.10;99.90;;;;;;2617087;54;20406;-74
2022/08/30 07:27:01;;;;;;;8.93;8.23;;;21.20;95.00;;;;;;2617751;54;20352;-74
2022/08/30 07:32:49;;;;;;;8.53;7.60;;;21.30;93.40;;;;;;2617872;54;20138;-76
2022/08/30 07:38:37;;;;;;;11.70;9.43;;;21.80;91.80;;;;;;2617783;54;20114;-74
2022/08/30 07:44:25;;;;;;;10.00;9.20;;;21.90;88.50;;;;;;2615874;54;20125;-75
2022/08/30 07:50:13;;;;;;;10.77;8.63;;;21.90;88.00;;;;;;2615556;54;20150;-75
2022/08/30 07:56:00;;;;;;;9.77;9.10;;;22.30;81.00;;;;;;2616223;54;20424;-75
2022/08/30 08:01:48;;;;;;;9.43;8.27;;;21.60;78.90;;;;;;2616045;54;20147;-75
2022/08/30 08:07:36;;;;;;;8.90;8.10;;;22.10;76.80;;;;;;2615945;54;20464;-75
2022/08/30 08:13:24;;;;;;;8.60;8.00;;;22.80;67.00;;;;;;2616742;54;20122;-75
2022/08/30 08:22:51;;;;;;;8.70;7.87;;;22.70;63.40;;;;;;2616673;54;20391;-75
2022/08/30 08:28:39;;;;;;;8.63;7.80;;;23.00;59.80;;;;;;2617071;54;20540;-74
2022/08/30 08:34:27;;;;;;;10.53;7.80;;;23.00;57.00;;;;;;2617165;54;20146;-76
2022/08/30 08:40:18;;;;;;;7.40;6.90;;;23.00;55.30;;;;;;2618463;39;20525;-76
2022/08/30 08:49:29;;;;;;;8.30;7.60;;;23.20;52.70;;;;;;2614051;54;20399;-75
2022/08/30 08:58:01;;;;;;;8.33;7.63;;;23.60;50.10;;;;;;2615220;54;20993;-76
2022/08/30 09:03:49;;;;;;;7.83;7.17;;;22.80;58.90;;;;;;2614205;39;20790;-74
2022/08/30 09:09:39;;;;;;;9.20;7.83;;;23.20;54.90;;;;;;2613433;54;20393;-76
2022/08/30 09:15:29;;;;;;;7.97;7.17;;;23.30;54.40;;;;;;2616231;54;20920;-75
2022/08/30 09:18:19;;;;;;;8.20;7.60;;;23.70;50.30;;;;;;2616229;54;20394;-75
2022/08/30 09:20:50;;;;;;;12.10;7.43;;;23.90;48.40;;;;;;2616529;54;20501;-74
2022/08/30 09:26:37;;;;;;;9.43;8.03;;;24.70;43.10;;;;;;2613966;54;20413;-74
2022/08/30 09:32:28;;;;;;;8.00;7.20;;;25.20;36.50;;;;;;2616008;54;20247;-74
2022/08/30 09:38:20;;;;;;;7.77;7.27;;;25.00;36.00;;;;;;2614955;54;20389;-75
2022/08/30 09:44:09;;;;;;;8.20;7.73;;;25.60;28.90;;;;;;2617029;54;20382;-74
2022/08/30 09:50:11;;;;;;;7.67;7.07;;;25.10;30.60;;;;;;2615481;39;20765;-75
2022/08/30 09:56:01;;;;;;;8.73;7.30;;;26.10;24.90;;;;;;2615196;54;20362;-77
2022/08/30 10:44:38;;;;;;;7.33;6.73;;;27.00;15.20;;;;;;2613432;54;20521;-76
2022/08/30 10:50:34;;;;;;;6.60;5.93;;;26.70;15.00;;;;;;2616286;39;20867;-75
2022/08/30 10:56:25;;;;;;;6.00;5.60;;;26.70;15.00;;;;;;2616452;54;20381;-75
2022/08/30 11:02:49;;;;;;;7.30;6.20;;;27.40;12.70;;;;;;2616353;54;20359;-75
2022/08/30 11:08:51;;;;;;;7.30;6.90;;;28.00;11.10;;;;;;2614349;54;20438;-75
2022/08/30 11:14:43;;;;;;;7.30;6.80;;;27.10;12.30;;;;;;2614278;54;20426;-76
2022/08/30 11:30:25;;;;;;;9.00;6.87;;;26.80;11.70;;;;;;2616214;54;20384;-77
2022/08/30 11:36:28;;;;;;;8.47;7.50;;;26.30;12.90;;;;;;2618166;54;20363;-75
2022/08/30 11:42:36;;;;;;;7.57;6.87;;;26.30;13.30;;;;;;2616794;54;20415;-75
2022/08/30 11:48:44;;;;;;;7.17;6.60;;;26.20;13.80;;;;;;2616541;54;20557;-75
2022/08/30 12:07:59;;;;;;;6.53;6.07;;;26.50;12.40;;;;;;2615792;54;20410;-75
2022/08/30 12:13:46;;;;;;;7.37;6.87;;;27.40;9.20;;;;;;2616688;54;20967;-74
2022/08/30 12:30:04;;;;;;;8.93;5.70;;;27.70;6.40;;;;;;2614901;54;20421;-77
2022/08/30 12:35:52;;;;;;;7.37;6.47;;;27.70;6.30;;;;;;2616452;54;20366;-75
2022/08/30 12:41:40;;;;;;;6.97;6.37;;;27.40;8.10;;;;;;2616168;39;20790;-74
2022/08/30 12:53:46;;;;;;;6.37;5.93;;;28.30;5.90;;;;;;2614675;54;20380;-77
2022/08/30 12:59:52;;;;;;;7.60;7.00;;;28.30;5.10;;;;;;2616295;54;20151;-75
2022/08/30 13:05:43;;;;;;;8.77;6.17;;;28.30;5.20;;;;;;2615845;39;20755;-77
2022/08/30 13:11:31;;;;;;;6.30;5.73;;;28.80;4.20;;;;;;2617669;54;20403;-75
2022/08/30 13:17:22;;;;;;;5.60;5.30;;;29.00;3.50;;;;;;2617589;54;20366;-75
2022/08/30 13:26:35;;;;;;;5.97;5.60;;;28.10;5.00;;;;;;2616353;39;20765;-76
2022/08/30 13:32:23;;;;;;;6.23;5.63;;;29.30;1.60;;;;;;2616177;54;20402;-76
2022/08/30 13:38:11;;;;;;;6.17;5.67;;;29.10;1.60;;;;;;2617591;54;20338;-75
2022/08/30 13:43:59;;;;;;;8.43;5.77;;;28.60;2.50;;;;;;2617646;54;20125;-75
2022/08/30 13:49:47;;;;;;;6.50;6.00;;;28.50;2.60;;;;;;2616418;54;20131;-76
2022/08/30 13:55:36;;;;;;;13.07;6.33;;;28.50;2.30;;;;;;2614645;39;20566;-76
2022/08/30 14:01:24;;;;;;;6.73;6.13;;;28.70;2.70;;;;;;2614603;54;20938;-75
2022/08/30 14:07:12;;;;;;;6.53;5.93;;;28.60;2.60;;;;;;2617541;54;20933;-76
2022/08/30 14:13:04;;;;;;;6.60;5.70;;;28.90;2.30;;;;;;2617656;54;20223;-75
2022/08/30 14:18:52;;;;;;;6.70;6.20;;;28.10;2.70;;;;;;2617564;54;20378;-75
2022/08/30 14:21:56;;;;;;;6.20;5.80;;;28.70;2.70;;;;;;2617335;39;20769;-76
2022/08/30 14:24:21;;;;;;;7.63;6.07;;;29.20;1.30;;;;;;2617797;54;20431;-75
2022/08/30 14:30:10;;;;;;;6.60;6.20;;;29.50;1.70;;;;;;2617671;54;20115;-75
2022/08/30 14:35:59;;;;;;;6.00;5.60;;;28.80;1.50;;;;;;2618183;54;20348;-76
2022/08/30 14:41:49;;;;;;;7.63;6.80;;;30.10;1.00;;;;;;2619048;39;20745;-75
2022/08/30 14:44:36;;;;;;;6.43;5.80;;;29.40;1.00;;;;;;2617594;54;20408;-75
2022/08/30 14:47:02;;;;;;;6.40;5.57;;;29.60;1.00;;;;;;2618289;47;20397;-76
2022/08/30 14:52:50;;;;;;;6.07;5.57;;;30.30;1.00;;;;;;2618369;54;20365;-75
2022/08/30 14:58:38;;;;;;;6.33;5.87;;;30.70;1.00;;;;;;2618271;39;20224;-75
2022/08/30 15:04:28;;;;;;;6.40;6.00;;;30.40;1.00;;;;;;2618310;39;20775;-75
2022/08/30 15:10:19;;;;;;;6.37;5.83;;;30.80;1.00;;;;;;2618166;54;20402;-75
2022/08/30 15:16:16;;;;;;;5.77;5.27;;;30.70;1.00;;;;;;2618416;54;20385;-75
2022/08/30 15:28:48;;;;;;;6.47;6.07;;;29.60;1.00;;;;;;2616461;39;20765;-76
2022/08/30 15:34:36;;;;;;;6.40;5.67;;;29.80;1.00;;;;;;2618085;54;20414;-75
2022/08/30 15:40:24;;;;;;;6.77;5.90;;;29.00;1.00;;;;;;2616753;54;20546;-76
2022/08/30 15:46:18;;;;;;;6.03;5.67;;;28.90;1.00;;;;;;2615851;54;20142;-76
2022/08/30 15:52:06;;;;;;;6.47;5.97;;;26.60;2.60;;;;;;2616796;39;20752;-76
2022/08/30 15:57:54;;;;;;;6.63;6.10;;;26.60;2.30;;;;;;2618983;54;20203;-75
2022/08/30 16:03:43;;;;;;;8.57;6.03;;;26.20;2.70;;;;;;2618625;54;20140;-75
2022/08/30 16:09:32;;;;;;;7.00;6.03;;;27.10;1.00;;;;;;2618056;54;20366;-75
2022/08/30 16:15:20;;;;;;;6.67;5.87;;;28.10;3.00;;;;;;2617929;54;20420;-76
2022/08/30 16:21:17;;;;;;;5.90;5.33;;;29.30;1.00;;;;;;2619016;54;20133;-76
2022/08/30 16:27:05;;;;;;;5.50;5.10;;;28.70;1.00;;;;;;2616526;54;20987;-78
2022/08/30 16:32:54;;;;;;;6.10;5.60;;;29.00;1.00;;;;;;2616834;54;20146;-77
2022/08/30 16:38:43;;;;;;;6.83;6.10;;;27.50;1.70;;;;;;2617719;54;20396;-76
2022/08/30 16:44:31;;;;;;;6.03;5.63;;;27.10;1.00;;;;;;2619166;54;20392;-77
2022/08/30 16:50:22;;;;;;;6.03;5.67;;;25.90;2.80;;;;;;2618817;54;20209;-78
2022/08/30 16:56:13;;;;;;;6.93;6.37;;;26.10;3.10;;;;;;2618191;54;20375;-76
2022/08/30 17:02:02;;;;;;;6.90;6.40;;;25.00;4.30;;;;;;2617581;54;20462;-77
2022/08/30 17:07:50;;;;;;;6.37;5.87;;;24.30;5.00;;;;;;2615642;54;20411;-78
2022/08/30 17:13:38;;;;;;;5.70;5.40;;;24.10;5.90;;;;;;2615331;54;20244;-76
2022/08/30 17:19:27;;;;;;;6.40;5.90;;;23.90;5.90;;;;;;2617713;54;20408;-77
2022/08/30 17:21:55;;;;;;;5.90;5.50;;;23.80;6.10;;;;;;2617138;54;20427;-77
2022/08/30 17:24:20;;;;;;;5.93;5.33;;;23.70;6.20;;;;;;2615880;54;20533;-77
2022/08/30 17:30:09;;;;;;;5.47;5.17;;;23.50;6.80;;;;;;2615805;54;20140;-77
2022/08/30 17:35:57;;;;;;;6.00;5.70;;;23.30;7.20;;;;;;2618275;54;20395;-76
2022/08/30 17:41:44;;;;;;;5.10;4.70;;;23.20;6.90;;;;;;2618494;54;20116;-77
2022/08/30 17:44:48;;;;;;;5.13;4.83;;;23.10;7.00;;;;;;2617670;46;20395;-80
2022/08/30 17:47:14;;;;;;;5.23;4.83;;;23.10;7.20;;;;;;2618167;47;20675;-77
2022/08/30 17:53:02;;;;;;;5.63;5.20;;;23.00;7.20;;;;;;2617822;39;20763;-77
2022/08/30 17:58:50;;;;;;;5.37;4.97;;;22.80;7.40;;;;;;2617853;54;20115;-76
2022/08/30 18:04:42;;;;;;;6.47;5.40;;;22.70;7.70;;;;;;2615992;54;20140;-78
2022/08/30 18:10:30;;;;;;;5.30;5.00;;;22.50;8.40;;;;;;2617072;54;20379;-77
2022/08/30 18:16:18;;;;;;;5.67;5.17;;;22.40;9.00;;;;;;2617686;54;20372;-78
2022/08/30 18:28:12;;;;;;;5.10;4.60;;;22.20;10.10;;;;;;2617782;54;20371;-77
2022/08/30 18:34:01;;;;;;;7.40;4.67;;;22.10;10.10;;;;;;2617926;54;20238;-77
2022/08/30 18:39:50;;;;;;;5.70;4.90;;;22.00;10.80;;;;;;2617768;54;20928;-78
2022/08/30 18:45:42;;;;;;;4.80;4.50;;;21.90;10.80;;;;;;2617631;54;20376;-75
2022/08/30 18:51:33;;;;;;;5.73;5.10;;;22.00;10.80;;;;;;2617456;54;20391;-76
2022/08/30 18:57:21;;;;;;;5.33;4.70;;;21.90;11.10;;;;;;2617963;54;20371;-78
2022/08/30 19:03:09;;;;;;;5.07;4.77;;;21.80;11.80;;;;;;2617905;54;20363;-80
2022/08/30 19:08:58;;;;;;;6.17;5.77;;;21.60;12.00;;;;;;2617193;54;20401;-77
2022/08/30 19:14:47;;;;;;;6.63;6.03;;;21.50;12.70;;;;;;2618868;54;20363;-80
2022/08/30 19:20:34;;;;;;;5.20;4.80;;;21.40;12.70;;;;;;2619863;54;20408;-79
2022/08/30 19:26:22;;;;;;;5.57;5.07;;;21.40;13.00;;;;;;2620096;54;20157;-80
2022/08/30 19:32:11;;;;;;;10.03;5.93;;;21.30;13.00;;;;;;2620748;54;20204;-80
2022/08/30 19:38:01;;;;;;;5.83;5.17;;;21.30;13.50;;;;;;2621359;54;20385;-80
2022/08/30 19:43:50;;;;;;;5.43;5.13;;;21.20;13.10;;;;;;2619689;54;20485;-80
2022/08/30 19:49:38;;;;;;;6.13;5.73;;;21.10;13.00;;;;;;2619206;54;20357;-79
2022/08/30 19:55:26;;;;;;;5.30;4.87;;;21.00;13.10;;;;;;2619823;54;20135;-80
2022/08/30 20:01:14;;;;;;;5.77;5.37;;;20.80;13.40;;;;;;2617913;54;20387;-80
2022/08/30 20:07:02;;;;;;;5.77;5.37;;;20.90;12.60;;;;;;2617584;54;20126;-79
2022/08/30 20:12:51;;;;;;;9.10;5.03;;;20.90;12.30;;;;;;2617835;39;20598;-77
2022/08/30 20:18:41;;;;;;;5.13;4.73;;;20.90;11.80;;;;;;2617889;54;20960;-80
2022/08/30 20:24:44;;;;;;;5.53;5.03;;;21.00;11.60;;;;;;2616568;47;20508;-79
2022/08/30 20:30:32;;;;;;;6.33;4.93;;;20.80;11.80;;;;;;2615858;54;20196;-79
2022/08/30 20:36:19;;;;;;;4.70;4.40;;;20.80;11.00;;;;;;2616347;39;20581;-79
2022/08/30 20:42:06;;;;;;;5.67;5.17;;;20.70;11.30;;;;;;2616116;39;20545;-78
2022/08/30 20:47:54;;;;;;;5.13;4.70;;;20.60;11.30;;;;;;2617886;54;20688;-82
2022/08/30 20:53:42;;;;;;;5.40;5.10;;;20.50;11.60;;;;;;2618791;54;20185;-82
2022/08/30 20:59:30;;;;;;;5.63;5.23;;;20.30;11.70;;;;;;2618302;54;20995;-81
2022/08/30 21:05:17;;;;;;;6.00;5.20;;;20.20;11.90;;;;;;2618418;54;20421;-78
2022/08/30 21:11:06;;;;;;;5.40;4.90;;;20.20;12.10;;;;;;2616694;54;20173;-79
2022/08/30 21:16:53;;;;;;;5.30;5.00;;;20.00;12.60;;;;;;2616766;54;20416;-78
2022/08/30 21:26:34;;;;;;;4.97;4.60;;;19.90;13.00;;;;;;2617891;54;20399;-79
2022/08/30 21:32:22;;;;;;;5.30;4.93;;;19.80;13.10;;;;;;2616176;39;22475;-79
2022/08/30 21:38:10;;;;;;;11.00;4.97;;;19.70;13.50;;;;;;2613747;54;20367;-79
2022/08/30 21:44:00;;;;;;;5.83;5.50;;;19.60;13.80;;;;;;2616831;54;20161;-80
2022/08/30 21:49:48;;;;;;;6.40;5.40;;;19.60;13.80;;;;;;2616366;54;20402;-78
2022/08/30 21:55:36;;;;;;;4.63;4.30;;;19.50;14.00;;;;;;2616898;54;20134;-78
2022/08/30 22:01:27;;;;;;;4.70;4.40;;;19.40;13.90;;;;;;2616574;54;20133;-78
2022/08/30 22:07:15;;;;;;;4.73;4.50;;;19.40;14.30;;;;;;2617241;54;20407;-78
2022/08/30 22:13:02;;;;;;;4.80;4.30;;;19.40;14.90;;;;;;2617558;54;20641;-78
2022/08/30 22:18:51;;;;;;;5.93;5.43;;;19.30;14.80;;;;;;2618028;54;20150;-79
2022/08/30 22:22:02;;;;;;;5.67;5.10;;;19.20;14.80;;;;;;2616889;47;20407;-78
2022/08/30 22:24:30;;;;;;;5.97;4.93;;;19.20;15.30;;;;;;2616132;47;21197;-80
2022/08/30 22:30:17;;;;;;;5.83;5.10;;;19.10;16.20;;;;;;2616651;54;20386;-77
2022/08/30 22:42:50;;;;;;;5.63;5.13;;;19.00;16.90;;;;;;2614679;54;20476;-78
2022/08/30 22:48:40;;;;;;;6.03;5.53;;;18.90;18.40;;;;;;2615161;39;20540;-77
2022/08/30 22:54:28;;;;;;;8.53;4.90;;;18.80;18.70;;;;;;2617430;54;20541;-80
2022/08/30 23:00:16;;;;;;;5.83;4.83;;;18.70;20.10;;;;;;2615717;54;20387;-79
2022/08/30 23:06:04;;;;;;;4.80;4.47;;;18.60;21.60;;;;;;2619153;39;21024;-83
2022/08/30 23:11:51;;;;;;;4.93;4.53;;;18.60;22.50;;;;;;2618411;54;20123;-81
2022/08/30 23:17:39;;;;;;;5.27;4.83;;;18.60;23.10;;;;;;2619348;54;20222;-81
